KBNL/BNL METAR and TAF weather

Enter ICAO airport designator
Station Type Date Time Source
KBNL METAR 2020/01/19 17:15 UTC NOAA

KBNL 191715Z AUTO 26010G16KT 10SM BKN090 BKN110 14/06 A3002 RMK AO2


Station Type Date Time Source
KBNL Decoded METAR 2020/01/19 17:15 UTC NOAA

Station name not available
Jan 19, 2020 - 12:15 PM EST / 2020.01.19 1715 UTC
Wind: from the W (260 degrees) at 12 MPH (10 KT) gusting to 18 MPH (16 KT):0
Visibility: 10 mile(s):0
Sky conditions: mostly cloudy
Temperature: 57 F (14 C)
Dew Point: 42 F (6 C)
Relative Humidity: 58%
Pressure (altimeter): 30.02 in. Hg (1016 hPa)
ob: KBNL 191715Z AUTO 26010G16KT 10SM BKN090 BKN110 14/06 A3002 RMK AO2
cycle: 17

Station Type Date Time Source
KBNL TAF UTC NOAA

Error!

Example: see airport list